Time;durP1;ratioP1;P1;durP2;ratioP2;P2;SDS_P1;SDS_P2;PMS_P1;PMS_P2;Temp;Humidity;BMP_temperature;BMP_pressure;BME280_temperature;BME280_humidity;BME280_pressure;Samples;Min_cycle;Max_cycle;Signal;HPM_P1;HPM_P2
2023/03/20 00:04:30;;;;;;;43.22;22.52;;;;;;;8.44;100.00;101642.34;10272642;28;20458;-79
2023/03/20 00:09:27;;;;;;;43.78;21.42;;;;;;;8.52;100.00;101639.06;10266278;28;20526;-79
2023/03/20 00:14:23;;;;;;;49.63;25.80;;;;;;;8.50;100.00;101641.25;10268829;28;20063;-79
2023/03/20 00:19:23;;;;;;;46.63;22.95;;;;;;;8.57;100.00;101641.75;10266330;28;20446;-79
2023/03/20 00:24:20;;;;;;;47.78;24.33;;;;;;;8.51;100.00;101640.13;10270154;28;20802;-78
2023/03/20 00:29:22;;;;;;;47.15;22.85;;;;;;;8.58;100.00;101637.91;10282533;28;20037;-79
2023/03/20 00:34:22;;;;;;;43.87;23.80;;;;;;;8.49;100.00;101634.16;10273120;28;20076;-74
2023/03/20 00:39:19;;;;;;;46.85;23.50;;;;;;;8.39;100.00;101629.53;10261013;28;20041;-74
2023/03/20 00:44:24;;;;;;;49.33;24.48;;;;;;;8.40;100.00;101633.09;10227076;28;20096;-78
2023/03/20 00:49:26;;;;;;;43.50;23.77;;;;;;;8.39;100.00;101634.19;10213892;28;20069;-79
2023/03/20 00:54:23;;;;;;;45.85;23.45;;;;;;;8.35;100.00;101633.09;10218694;28;20132;-79
2023/03/20 00:59:24;;;;;;;44.75;24.15;;;;;;;8.33;100.00;101627.13;10215758;28;20537;-80
2023/03/20 01:04:21;;;;;;;52.05;25.17;;;;;;;8.21;100.00;101632.91;10208296;28;20754;-81
2023/03/20 01:09:17;;;;;;;49.08;22.58;;;;;;;8.38;100.00;101638.00;10218103;28;20125;-81
2023/03/20 01:14:14;;;;;;;54.88;28.00;;;;;;;8.28;100.00;101632.59;10209974;28;20044;-81
2023/03/20 01:19:12;;;;;;;42.53;23.27;;;;;;;8.40;100.00;101635.81;10232685;28;20408;-81
2023/03/20 01:24:09;;;;;;;46.97;24.70;;;;;;;8.43;100.00;101640.75;10225982;28;20060;-80
2023/03/20 01:29:20;;;;;;;42.35;22.25;;;;;;;8.40;100.00;101633.09;10226635;28;20610;-81
2023/03/20 01:34:31;;;;;;;45.42;23.88;;;;;;;8.42;100.00;101630.91;10194076;28;20042;-77
2023/03/20 01:39:35;;;;;;;48.92;25.17;;;;;;;8.28;100.00;101627.16;10190889;28;20072;-75
2023/03/20 01:44:33;;;;;;;43.45;21.80;;;;;;;8.25;100.00;101633.16;10214392;28;20077;-80
2023/03/20 01:50:07;;;;;;;48.70;25.00;;;;;;;8.31;100.00;101637.47;10223975;28;20069;-81
2023/03/20 01:55:04;;;;;;;;;;;;;;;8.22;100.00;101635.34;10213188;28;20045;-75
2023/03/20 02:00:09;;;;;;;52.08;24.98;;;;;;;8.18;100.00;101638.91;10217432;28;20309;-73
2023/03/20 02:05:14;;;;;;;45.30;22.75;;;;;;;8.21;100.00;101643.78;11166680;22;20025;-75
2023/03/20 02:10:15;;;;;;;50.90;23.20;;;;;;;8.08;100.00;101639.78;10181464;28;20509;-74
2023/03/20 02:15:14;;;;;;;45.53;22.55;;;;;;;8.05;100.00;101639.50;10189606;28;20061;-74
2023/03/20 02:20:44;;;;;;;46.85;22.95;;;;;;;7.86;100.00;101639.28;10232110;28;20490;-74
2023/03/20 02:25:50;;;;;;;46.55;21.55;;;;;;;7.78;100.00;101636.06;10202271;28;20081;-74
2023/03/20 02:31:00;;;;;;;42.50;21.02;;;;;;;7.66;100.00;101643.72;10200633;28;20706;-76
2023/03/20 02:36:23;;;;;;;42.83;21.38;;;;;;;7.47;100.00;101640.75;10204897;28;20046;-76
2023/03/20 02:41:43;;;;;;;38.65;19.40;;;;;;;7.53;100.00;101636.91;10204300;28;20046;-76
2023/03/20 02:47:20;;;;;;;40.90;20.90;;;;;;;7.40;100.00;101633.94;10207970;28;21688;-76
2023/03/20 02:52:42;;;;;;;40.63;20.10;;;;;;;7.37;100.00;101636.13;10225852;28;20056;-74
2023/03/20 02:57:57;;;;;;;38.53;18.77;;;;;;;7.22;100.00;101629.88;10220961;28;20056;-74
2023/03/20 03:03:17;;;;;;;41.65;18.20;;;;;;;7.21;100.00;101630.97;10226969;28;20045;-74
2023/03/20 03:08:19;;;;;;;36.08;16.20;;;;;;;7.08;100.00;101632.34;10217184;28;20041;-73
2023/03/20 03:13:20;;;;;;;30.27;15.90;;;;;;;7.12;100.00;101631.50;10224599;28;20141;-73
2023/03/20 03:18:21;;;;;;;23.02;12.30;;;;;;;7.01;100.00;101626.34;10202051;28;20033;-73
2023/03/20 03:23:25;;;;;;;24.80;13.45;;;;;;;7.06;100.00;101621.72;10219695;28;20149;-72
2023/03/20 03:28:30;;;;;;;21.48;12.27;;;;;;;7.08;100.00;101621.47;10221700;28;20041;-72
2023/03/20 03:33:32;;;;;;;22.17;11.48;;;;;;;6.94;100.00;101608.41;10216485;28;20065;-72
2023/03/20 03:38:34;;;;;;;20.17;12.02;;;;;;;6.97;100.00;101600.78;10213196;28;20046;-71
2023/03/20 03:43:38;;;;;;;19.95;10.13;;;;;;;7.16;100.00;101596.44;10217188;28;20144;-73
2023/03/20 03:48:46;;;;;;;18.33;10.73;;;;;;;7.07;100.00;101598.06;10217948;28;20124;-73
2023/03/20 03:53:56;;;;;;;18.55;10.43;;;;;;;7.03;100.00;101608.69;10219118;28;20048;-72
2023/03/20 03:59:03;;;;;;;19.40;10.93;;;;;;;7.00;100.00;101601.06;10224534;28;20561;-71
2023/03/20 04:04:02;;;;;;;16.85;10.30;;;;;;;7.02;100.00;101606.22;10205567;28;20119;-72
2023/03/20 04:09:00;;;;;;;15.38;9.60;;;;;;;7.02;100.00;101611.66;10220071;28;20697;-71
2023/03/20 04:13:56;;;;;;;14.77;9.65;;;;;;;6.98;100.00;101610.56;10204419;28;20077;-73
2023/03/20 04:18:55;;;;;;;16.77;8.50;;;;;;;6.98;100.00;101610.56;10223072;28;20473;-72
2023/03/20 04:23:51;;;;;;;15.27;10.15;;;;;;;6.97;100.00;101598.06;10217568;28;20104;-73
2023/03/20 04:28:47;;;;;;;19.13;9.60;;;;;;;6.87;100.00;101599.72;10216865;28;20124;-71
2023/03/20 04:33:44;;;;;;;17.67;10.68;;;;;;;7.01;100.00;101610.03;10200675;28;20076;-70
2023/03/20 04:38:41;;;;;;;16.17;9.90;;;;;;;6.98;100.00;101596.97;10216810;28;20038;-71
2023/03/20 04:43:39;;;;;;;19.42;12.35;;;;;;;7.01;100.00;101601.88;10224675;28;20057;-70
2023/03/20 04:48:35;;;;;;;15.38;10.25;;;;;;;6.95;100.00;101593.72;10196546;28;20073;-73
2023/03/20 04:53:32;;;;;;;16.95;11.43;;;;;;;7.10;100.00;101608.38;10219916;28;20084;-69
2023/03/20 04:58:28;;;;;;;15.20;10.82;;;;;;;7.07;100.00;101589.91;10226637;28;20107;-69
2023/03/20 05:03:26;;;;;;;16.40;11.50;;;;;;;7.12;100.00;101592.63;10211926;28;20046;-69
2023/03/20 05:08:23;;;;;;;13.68;10.02;;;;;;;6.99;100.00;101590.47;10218697;28;20418;-69
2023/03/20 05:13:19;;;;;;;16.30;10.40;;;;;;;7.04;100.00;101588.56;10205542;28;20120;-69
2023/03/20 05:18:15;;;;;;;16.13;12.18;;;;;;;7.11;100.00;101589.09;10202463;28;20091;-69
2023/03/20 05:23:12;;;;;;;16.10;10.60;;;;;;;7.01;100.00;101593.69;10219263;28;20069;-69
2023/03/20 05:28:09;;;;;;;15.52;11.07;;;;;;;6.94;100.00;101600.25;10203041;28;20153;-69
2023/03/20 05:33:06;;;;;;;17.35;11.15;;;;;;;6.83;100.00;101604.03;10196880;28;20060;-69
2023/03/20 05:38:03;;;;;;;17.95;13.15;;;;;;;6.85;100.00;101601.88;10216348;28;20057;-69
2023/03/20 05:42:59;;;;;;;16.60;12.30;;;;;;;6.85;100.00;101617.38;10222441;28;20104;-69
2023/03/20 05:47:56;;;;;;;16.35;11.65;;;;;;;6.86;100.00;101614.38;10221292;28;20050;-69
2023/03/20 05:52:52;;;;;;;21.08;12.98;;;;;;;6.82;100.00;101624.16;10208542;28;20064;-69
2023/03/20 05:57:49;;;;;;;20.33;14.48;;;;;;;6.87;100.00;101628.78;10210235;28;20460;-70
2023/03/20 06:02:45;;;;;;;21.05;13.38;;;;;;;6.87;100.00;101626.88;10205605;28;20072;-69
2023/03/20 06:07:43;;;;;;;21.70;15.13;;;;;;;6.95;100.00;101623.63;10202090;28;20062;-70
2023/03/20 06:12:39;;;;;;;21.17;14.50;;;;;;;7.01;100.00;101629.06;10207985;28;20140;-69
2023/03/20 06:17:36;;;;;;;16.70;12.68;;;;;;;6.95;100.00;101634.50;10203968;28;20630;-70
2023/03/20 06:22:32;;;;;;;15.30;12.48;;;;;;;6.94;100.00;101637.50;10206513;28;20041;-69
2023/03/20 06:27:30;;;;;;;14.75;12.35;;;;;;;7.06;100.00;101631.78;10220381;28;20456;-69
2023/03/20 06:32:26;;;;;;;14.82;12.02;;;;;;;7.06;100.00;101634.50;10210221;28;20415;-69
2023/03/20 06:37:23;;;;;;;16.65;11.27;;;;;;;7.06;100.00;101639.97;10219615;28;20406;-69
2023/03/20 06:42:19;;;;;;;18.25;11.77;;;;;;;7.13;100.00;101629.63;10210921;28;20049;-69
2023/03/20 06:47:16;;;;;;;12.13;10.75;;;;;;;7.20;100.00;101630.16;10217375;28;20088;-69
2023/03/20 06:52:18;;;;;;;13.57;11.43;;;;;;;7.19;100.00;101633.94;10218924;28;20507;-69
2023/03/20 06:57:16;;;;;;;11.73;10.13;;;;;;;7.25;100.00;101627.44;10215850;28;20422;-69
2023/03/20 07:02:13;;;;;;;12.63;10.10;;;;;;;7.23;100.00;101629.59;10218173;28;20100;-69
2023/03/20 07:07:09;;;;;;;13.70;10.38;;;;;;;7.22;100.00;101633.44;10221757;28;20052;-69
2023/03/20 07:12:13;;;;;;;14.25;10.63;;;;;;;7.32;100.00;101649.72;10215511;28;20078;-69
2023/03/20 07:17:10;;;;;;;11.43;10.30;;;;;;;7.34;100.00;101647.56;10217666;28;20112;-69
2023/03/20 07:22:14;;;;;;;15.40;9.95;;;;;;;7.27;100.00;101647.03;10224519;28;20042;-69
2023/03/20 07:27:11;;;;;;;12.73;10.27;;;;;;;7.29;100.00;101639.41;10226265;28;20136;-69
2023/03/20 07:32:07;;;;;;;12.27;9.65;;;;;;;7.38;100.00;101648.66;10218096;28;20136;-69
2023/03/20 07:37:04;;;;;;;12.57;9.55;;;;;;;7.40;100.00;101655.72;10214976;28;20041;-69
2023/03/20 07:42:01;;;;;;;13.40;9.70;;;;;;;7.47;100.00;101651.63;10221259;28;20053;-69
2023/03/20 07:46:57;;;;;;;12.63;8.20;;;;;;;7.36;100.00;101661.72;10221894;28;20115;-69
2023/03/20 07:51:54;;;;;;;11.48;8.40;;;;;;;7.43;100.00;101655.19;10219219;28;20475;-69
2023/03/20 07:56:50;;;;;;;14.13;9.55;;;;;;;7.62;100.00;101648.06;10218882;28;20073;-69
2023/03/20 08:01:47;;;;;;;12.45;9.52;;;;;;;7.63;100.00;101655.13;10210288;28;20121;-69
2023/03/20 08:06:43;;;;;;;9.80;8.80;;;;;;;7.69;100.00;101645.88;10216174;28;20048;-69
2023/03/20 08:11:40;;;;;;;9.98;8.63;;;;;;;7.82;100.00;101646.38;10221725;28;20056;-69
2023/03/20 08:16:36;;;;;;;10.75;8.23;;;;;;;7.86;100.00;101647.47;10211686;28;20046;-69
2023/03/20 08:21:33;;;;;;;11.07;8.60;;;;;;;7.75;100.00;101658.38;10217611;28;20042;-69
2023/03/20 08:26:29;;;;;;;12.73;8.80;;;;;;;7.79;100.00;101670.34;10222756;28;20073;-69
2023/03/20 08:31:26;;;;;;;10.75;7.90;;;;;;;7.70;100.00;101672.00;10216860;28;20049;-69
2023/03/20 08:36:23;;;;;;;10.27;8.13;;;;;;;7.70;100.00;101672.00;10219860;28;20086;-69
2023/03/20 08:41:19;;;;;;;9.80;8.05;;;;;;;7.72;100.00;101672.53;10223296;28;20059;-76
2023/03/20 08:46:16;;;;;;;13.27;8.02;;;;;;;7.64;100.00;101686.72;10209684;28;20046;-76
2023/03/20 08:51:12;;;;;;;9.07;7.53;;;;;;;7.76;100.00;101681.78;10212103;28;20045;-75
2023/03/20 08:56:09;;;;;;;13.10;8.48;;;;;;;7.85;100.00;101673.06;10206687;28;20057;-74
2023/03/20 09:01:07;;;;;;;12.48;8.80;;;;;;;7.88;100.00;101680.69;10228840;28;20089;-75
2023/03/20 09:06:06;;;;;;;14.60;8.90;;;;;;;7.84;100.00;101676.88;10193387;28;20056;-75
2023/03/20 09:11:04;;;;;;;15.20;9.43;;;;;;;7.94;100.00;101672.22;10218753;28;20053;-75
2023/03/20 09:16:00;;;;;;;10.82;9.63;;;;;;;7.90;100.00;101682.03;10206906;28;20053;-75
2023/03/20 09:20:57;;;;;;;12.93;10.18;;;;;;;7.80;100.00;101676.63;10201552;28;20075;-75
2023/03/20 09:25:53;;;;;;;14.73;9.57;;;;;;;7.97;100.00;101677.09;10218170;28;20188;-76
2023/03/20 09:30:55;;;;;;;11.02;9.73;;;;;;;8.04;100.00;101678.75;10220361;28;20049;-75
2023/03/20 09:35:51;;;;;;;11.77;9.05;;;;;;;8.05;100.00;101670.28;10212398;28;20495;-75
2023/03/20 09:41:02;;;;;;;12.45;8.98;;;;;;;8.10;100.00;101670.28;10222377;28;20045;-75
2023/03/20 09:46:22;;;;;;;11.55;7.95;;;;;;;8.31;100.00;101671.00;10208701;28;20038;-75
2023/03/20 09:51:35;;;;;;;11.57;9.55;;;;;;;8.34;100.00;101670.44;10215296;28;20037;-75
2023/03/20 09:56:32;;;;;;;10.65;9.55;;;;;;;8.42;100.00;101682.69;10210094;28;20081;-75
2023/03/20 10:01:46;;;;;;;11.98;8.68;;;;;;;8.13;100.00;101686.06;10226953;28;20425;-75
2023/03/20 10:06:42;;;;;;;10.82;8.30;;;;;;;8.34;100.00;101681.34;10219635;28;20132;-75
2023/03/20 10:12:19;;;;;;;12.90;10.07;;;;;;;8.26;100.00;101689.28;10215669;28;20049;-75
2023/03/20 10:17:40;;;;;;;16.40;10.43;;;;;;;8.10;100.00;101691.22;10202334;28;20033;-75
2023/03/20 10:22:43;;;;;;;14.73;10.55;;;;;;;8.08;100.00;101688.81;10196845;28;20065;-75
2023/03/20 10:27:50;;;;;;;15.13;10.88;;;;;;;8.25;100.00;101676.75;10227466;28;20045;-75
2023/03/20 10:32:53;;;;;;;14.07;9.45;;;;;;;8.34;100.00;101675.09;10222343;28;20765;-75
2023/03/20 10:37:55;;;;;;;13.40;9.55;;;;;;;8.10;100.00;101662.09;10218165;28;20058;-75
2023/03/20 10:42:57;;;;;;;15.50;9.90;;;;;;;8.25;100.00;101649.50;10223292;28;20099;-75
2023/03/20 10:47:57;;;;;;;12.93;9.35;;;;;;;8.34;100.00;101653.28;10225137;28;20458;-75
2023/03/20 10:52:55;;;;;;;17.05;9.75;;;;;;;8.21;100.00;101655.53;10214255;28;20057;-75
2023/03/20 10:58:07;;;;;;;16.38;10.32;;;;;;;8.40;100.00;101652.19;10213532;28;20096;-75
2023/03/20 11:03:05;;;;;;;15.90;9.38;;;;;;;8.80;100.00;101639.44;10213261;28;20073;-75
2023/03/20 11:08:10;;;;;;;10.85;8.45;;;;;;;8.74;100.00;101632.38;10215228;28;20053;-75
2023/03/20 11:13:28;;;;;;;14.10;9.70;;;;;;;8.50;100.00;101641.25;10216646;28;20053;-75
2023/03/20 11:18:25;;;;;;;17.10;9.45;;;;;;;8.54;100.00;101631.41;10219863;28;20384;-75
2023/03/20 11:23:32;;;;;;;14.77;10.55;;;;;;;8.70;100.00;101636.75;10232753;28;20056;-74
2023/03/20 11:28:46;;;;;;;16.20;9.38;;;;;;;8.63;100.00;101627.00;10206699;28;20044;-74
2023/03/20 11:33:50;;;;;;;13.95;10.00;;;;;;;8.56;100.00;101612.88;10212945;28;20076;-74
2023/03/20 11:38:49;;;;;;;11.77;8.85;;;;;;;8.67;100.00;101624.50;10212258;28;20038;-74
2023/03/20 11:43:45;;;;;;;13.52;8.93;;;;;;;8.51;100.00;101615.59;10213182;28;20041;-75
2023/03/20 11:48:47;;;;;;;12.10;9.13;;;;;;;8.55;100.00;101615.88;10217349;28;20061;-75
2023/03/20 11:53:46;;;;;;;14.68;9.27;;;;;;;8.56;100.00;101615.59;10216647;28;20132;-75
2023/03/20 11:59:10;;;;;;;12.93;8.35;;;;;;;8.61;100.00;101604.66;10219635;28;20050;-75
2023/03/20 12:04:10;;;;;;;;;;;;;;;8.66;100.00;101613.88;10222168;28;20048;-75
2023/03/20 12:09:35;;;;;;;15.52;9.95;;;;;;;8.63;100.00;101610.63;10221806;28;19943;-75
2023/03/20 12:14:53;;;;;;;13.88;10.55;;;;;;;8.57;100.00;101609.03;10211678;28;20416;-75
2023/03/20 12:19:53;;;;;;;13.73;9.77;;;;;;;8.71;100.00;101608.41;10220908;28;20465;-75
2023/03/20 12:25:01;;;;;;;12.88;10.23;;;;;;;8.74;100.00;101602.38;10219794;28;20056;-75
2023/03/20 12:30:03;;;;;;;18.50;10.50;;;;;;;8.85;100.00;101609.38;10215556;28;20078;-75
2023/03/20 12:35:09;;;;;;;16.73;10.07;;;;;;;8.90;100.00;101601.16;10224948;28;20057;-75
2023/03/20 12:40:14;;;;;;;11.85;10.00;;;;;;;8.95;100.00;101598.38;10229812;28;20046;-74
2023/03/20 12:45:29;;;;;;;13.30;10.38;;;;;;;9.10;100.00;101599.34;10220650;28;20055;-74
2023/03/20 12:50:38;;;;;;;12.45;9.15;;;;;;;9.47;100.00;101596.03;10207783;28;20041;-75
2023/03/20 12:55:47;;;;;;;11.25;9.40;;;;;;;9.87;100.00;101574.81;10214192;28;20051;-75
2023/03/20 13:00:52;;;;;;;12.20;9.77;;;;;;;10.70;100.00;101565.22;10217757;28;20044;-75
2023/03/20 13:06:03;;;;;;;12.05;9.93;;;;;;;10.55;100.00;101559.16;10221012;28;20045;-75
2023/03/20 13:11:24;;;;;;;16.73;10.27;;;;;;;10.17;100.00;101551.75;10191481;28;20049;-75
2023/03/20 13:16:59;;;;;;;13.10;10.48;;;;;;;9.95;100.00;101554.22;10223476;28;20076;-75
2023/03/20 13:22:13;;;;;;;12.02;9.50;;;;;;;9.76;100.00;101552.25;10206336;28;20137;-75
2023/03/20 13:27:15;;;;;;;12.32;8.98;;;;;;;9.57;100.00;101537.75;10218681;28;20572;-75
2023/03/20 13:32:24;;;;;;;10.70;9.02;;;;;;;9.50;100.00;101550.94;10205803;28;20049;-75
2023/03/20 13:37:55;;;;;;;12.88;8.73;;;;;;;9.38;100.00;101546.69;10211252;28;20045;-75
2023/03/20 13:43:25;;;;;;;11.90;9.23;;;;;;;9.33;100.00;101538.56;10193538;28;20041;-75
2023/03/20 13:48:39;;;;;;;11.48;8.98;;;;;;;9.32;100.00;101534.19;10216530;28;20046;-75
2023/03/20 13:53:44;;;;;;;9.88;8.43;;;;;;;9.29;100.00;101534.78;10208346;28;20173;-75
2023/03/20 13:58:55;;;;;;;10.25;9.20;;;;;;;9.34;100.00;101534.72;10216351;28;20041;-75
2023/03/20 14:03:52;;;;;;;15.38;9.38;;;;;;;9.26;100.00;101533.47;10225682;28;20088;-75
2023/03/20 14:08:53;;;;;;;16.42;9.48;;;;;;;9.18;100.00;101536.00;10205071;28;20037;-75
2023/03/20 14:13:54;;;;;;;10.93;8.98;;;;;;;9.22;100.00;101532.41;10229130;28;20096;-75
2023/03/20 14:19:05;;;;;;;12.38;9.05;;;;;;;9.30;100.00;101536.41;10223784;28;20041;-75
2023/03/20 14:24:14;;;;;;;13.43;10.68;;;;;;;9.25;100.00;101531.00;10214575;28;20073;-75
2023/03/20 14:29:10;;;;;;;12.20;8.68;;;;;;;9.22;100.00;101528.88;10219794;28;20091;-75
2023/03/20 14:34:10;;;;;;;14.05;9.50;;;;;;;9.12;100.00;101532.50;10227098;28;20450;-75
2023/03/20 14:39:19;;;;;;;11.70;8.85;;;;;;;9.15;100.00;101542.03;10224480;28;20049;-75
2023/03/20 14:44:37;;;;;;;12.18;8.50;;;;;;;9.10;100.00;101522.97;10220113;28;20518;-75
2023/03/20 14:49:47;;;;;;;10.63;9.48;;;;;;;9.05;100.00;101535.56;10213139;28;20038;-76
2023/03/20 14:54:53;;;;;;;10.63;9.10;;;;;;;8.99;100.00;101539.44;10214464;28;20069;-76
2023/03/20 14:59:50;;;;;;;9.80;8.80;;;;;;;9.02;100.00;101547.03;10223295;28;20041;-76
2023/03/20 15:04:47;;;;;;;12.77;8.95;;;;;;;9.03;100.00;101537.78;10224357;28;20057;-76
2023/03/20 15:09:46;;;;;;;11.23;8.50;;;;;;;8.88;100.00;101554.25;10224398;28;20041;-76
2023/03/20 15:14:50;;;;;;;11.00;7.90;;;;;;;8.79;100.00;101545.88;10221000;28;20046;-76
2023/03/20 15:19:46;;;;;;;12.35;8.65;;;;;;;8.66;100.00;101545.72;10227085;28;20448;-76
2023/03/20 15:24:54;;;;;;;12.70;8.88;;;;;;;8.62;100.00;101551.75;10224537;28;20055;-76
2023/03/20 15:29:53;;;;;;;14.27;8.55;;;;;;;8.57;100.00;101556.44;10221274;28;20037;-76
2023/03/20 15:34:50;;;;;;;13.82;8.75;;;;;;;8.68;100.00;101555.25;10224005;28;20502;-74
2023/03/20 15:39:50;;;;;;;10.75;8.30;;;;;;;8.78;100.00;101549.72;10225033;28;20045;-74
2023/03/20 15:44:49;;;;;;;12.82;9.20;;;;;;;8.83;100.00;101551.59;10222408;28;20054;-74
2023/03/20 15:49:52;;;;;;;11.85;9.25;;;;;;;8.86;100.00;101537.38;10215077;28;20061;-75
2023/03/20 15:54:48;;;;;;;18.40;9.52;;;;;;;8.78;100.00;101543.44;10228198;28;20483;-74
2023/03/20 15:59:45;;;;;;;10.13;9.07;;;;;;;8.61;100.00;101539.22;10224268;28;20042;-75
2023/03/20 16:04:46;;;;;;;14.43;8.98;;;;;;;8.46;100.00;101547.50;10215351;28;20119;-74
2023/03/20 16:09:43;;;;;;;12.68;9.55;;;;;;;8.42;100.00;101546.44;10232789;28;20041;-75
2023/03/20 16:14:40;;;;;;;17.65;10.48;;;;;;;8.34;100.00;101556.00;10222203;28;20045;-75
2023/03/20 16:19:37;;;;;;;13.10;10.15;;;;;;;8.38;100.00;101539.91;10222184;28;20136;-76
2023/03/20 16:24:37;;;;;;;12.65;10.25;;;;;;;8.43;100.00;101529.00;10218389;28;20046;-75
2023/03/20 16:29:35;;;;;;;13.68;9.77;;;;;;;8.30;100.00;101543.22;10222804;28;20059;-75
2023/03/20 16:34:35;;;;;;;13.73;10.13;;;;;;;8.33;100.00;101542.66;10220348;28;20511;-75
2023/03/20 16:39:31;;;;;;;19.75;11.32;;;;;;;8.18;100.00;101536.19;10211601;28;20571;-76
2023/03/20 16:44:34;;;;;;;14.45;11.38;;;;;;;8.40;100.00;101537.72;10227686;28;20042;-75
2023/03/20 16:49:53;;;;;;;16.65;10.55;;;;;;;8.25;100.00;101535.09;10219198;28;20041;-75
2023/03/20 16:54:49;;;;;;;11.48;9.35;;;;;;;8.28;100.00;101545.41;10212748;28;20037;-75
2023/03/20 16:59:46;;;;;;;17.17;11.48;;;;;;;8.29;100.00;101552.50;10225044;28;20048;-76
2023/03/20 17:04:46;;;;;;;13.30;10.43;;;;;;;8.29;100.00;101547.06;10225780;28;20053;-75
2023/03/20 17:10:15;;;;;;;14.15;11.55;;;;;;;8.19;100.00;101548.75;10229187;28;20077;-73
2023/03/20 17:15:17;;;;;;;14.65;11.68;;;;;;;8.33;100.00;101556.28;10217206;28;20057;-74
2023/03/20 17:20:41;;;;;;;18.65;10.95;;;;;;;8.28;100.00;101567.19;10214902;28;20050;-74
2023/03/20 17:25:37;;;;;;;14.63;11.95;;;;;;;8.40;100.00;101570.41;10208834;28;20080;-74
2023/03/20 17:30:34;;;;;;;21.98;14.55;;;;;;;8.50;100.00;101564.13;10211155;28;20140;-74
2023/03/20 17:35:31;;;;;;;18.02;11.25;;;;;;;8.18;100.00;101568.88;10210774;28;20085;-74
2023/03/20 17:40:29;;;;;;;16.33;11.25;;;;;;;8.12;100.00;101570.03;10230487;28;20045;-75
2023/03/20 17:45:26;;;;;;;16.55;11.82;;;;;;;8.09;100.00;101580.66;10205577;28;20554;-75
2023/03/20 17:50:25;;;;;;;19.35;11.35;;;;;;;8.11;100.00;101584.72;10207530;28;20069;-75
2023/03/20 17:55:22;;;;;;;20.00;12.15;;;;;;;8.05;100.00;101591.28;10205245;28;20053;-76
2023/03/20 18:00:21;;;;;;;20.67;12.45;;;;;;;8.03;100.00;101593.50;10190467;28;20518;-75
2023/03/20 18:05:18;;;;;;;15.20;12.45;;;;;;;7.87;100.00;101605.53;10219293;28;20508;-75
2023/03/20 18:10:24;;;;;;;22.73;14.60;;;;;;;7.62;100.00;101607.25;10213309;28;20120;-75
2023/03/20 18:15:20;;;;;;;20.88;15.40;;;;;;;7.62;100.00;101604.53;10221448;28;20057;-75
2023/03/20 18:20:29;;;;;;;15.98;14.20;;;;;;;7.78;100.00;101614.28;10206563;28;20075;-73
2023/03/20 18:25:27;;;;;;;16.92;14.68;;;;;;;7.73;100.00;101617.00;10220387;28;20137;-74
2023/03/20 18:30:28;;;;;;;22.90;12.80;;;;;;;7.79;100.00;101605.00;10222366;28;20132;-73
2023/03/20 18:35:25;;;;;;;18.33;13.20;;;;;;;7.79;100.00;101594.09;10216477;28;20133;-73
2023/03/20 18:40:31;;;;;;;17.65;13.38;;;;;;;7.69;100.00;101599.59;10219972;28;20780;-73
2023/03/20 18:45:29;;;;;;;20.17;13.85;;;;;;;7.72;100.00;101604.47;10222189;28;20041;-74
2023/03/20 18:50:35;;;;;;;16.35;12.93;;;;;;;7.72;100.00;101599.03;10233436;28;20073;-74
2023/03/20 18:55:34;;;;;;;15.90;12.30;;;;;;;7.72;100.00;101593.59;10222209;28;20063;-74
2023/03/20 19:00:39;;;;;;;19.42;13.63;;;;;;;7.70;100.00;101595.78;10229752;28;20077;-75
2023/03/20 19:05:36;;;;;;;19.73;14.00;;;;;;;7.73;100.00;101584.34;10231106;28;20052;-75
2023/03/20 19:10:34;;;;;;;18.30;13.40;;;;;;;7.72;100.00;101590.88;10229384;28;20049;-75
2023/03/20 19:15:35;;;;;;;17.42;13.40;;;;;;;7.66;100.00;101589.28;10218108;28;20053;-75
2023/03/20 19:20:37;;;;;;;18.42;14.10;;;;;;;7.72;100.00;101593.59;10209530;28;20069;-75
2023/03/20 19:25:36;;;;;;;21.48;14.45;;;;;;;7.69;100.00;101593.34;10191939;28;20069;-75
2023/03/20 19:30:37;;;;;;;20.88;14.82;;;;;;;7.58;100.00;101592.53;10216572;28;20050;-74
2023/03/20 19:35:35;;;;;;;20.92;15.98;;;;;;;7.62;100.00;101582.75;10223719;28;20053;-75
2023/03/20 19:40:52;;;;;;;22.23;16.17;;;;;;;7.51;100.00;101586.56;10219883;28;20052;-74
2023/03/20 19:45:53;;;;;;;22.98;15.90;;;;;;;7.61;100.00;101594.72;10216788;28;20069;-75
2023/03/20 19:50:55;;;;;;;19.88;14.95;;;;;;;7.47;100.00;101585.50;10229012;28;20049;-75
2023/03/20 19:55:53;;;;;;;24.55;16.30;;;;;;;7.49;100.00;101577.88;10225336;28;20038;-75
2023/03/20 20:00:50;;;;;;;23.83;15.73;;;;;;;7.44;100.00;101586.06;10217433;28;20042;-75
2023/03/20 20:05:55;;;;;;;19.08;13.85;;;;;;;7.38;100.00;101577.91;10213985;28;20053;-74
2023/03/20 20:10:53;;;;;;;16.33;13.60;;;;;;;7.39;100.00;101578.72;10206873;28;20049;-75
2023/03/20 20:15:50;;;;;;;15.45;12.63;;;;;;;7.33;100.00;101585.25;10223471;28;20072;-75
2023/03/20 20:20:49;;;;;;;18.45;12.98;;;;;;;7.32;100.00;101579.00;10219372;28;20045;-75
2023/03/20 20:26:08;;;;;;;20.38;13.52;;;;;;;7.37;100.00;101578.97;10221894;28;20049;-75
2023/03/20 20:31:04;;;;;;;15.48;12.50;;;;;;;7.37;100.00;101581.69;10229422;28;20054;-75
2023/03/20 20:36:10;;;;;;;17.58;12.70;;;;;;;7.41;100.00;101579.25;10203517;28;20136;-75
2023/03/20 20:41:28;;;;;;;21.42;12.88;;;;;;;7.43;100.00;101579.81;10215775;28;20136;-75
2023/03/20 20:46:25;;;;;;;15.45;12.48;;;;;;;7.48;100.00;101578.97;10215159;28;20042;-74
2023/03/20 20:51:22;;;;;;;16.23;13.30;;;;;;;7.38;100.00;101588.78;10214233;28;20132;-73
2023/03/20 20:56:18;;;;;;;16.83;14.70;;;;;;;7.33;100.00;101596.97;10226889;28;20045;-74
2023/03/20 21:01:15;;;;;;;14.95;12.55;;;;;;;7.30;100.00;101592.06;10196321;28;20064;-73
2023/03/20 21:06:11;;;;;;;17.63;13.30;;;;;;;7.20;100.00;101597.53;10200699;28;20054;-72
2023/03/20 21:11:11;;;;;;;23.33;15.52;;;;;;;7.20;100.00;101600.25;10201416;28;20053;-73
2023/03/20 21:16:08;;;;;;;17.73;14.20;;;;;;;7.10;100.00;101602.94;10219782;28;20610;-73
2023/03/20 21:21:10;;;;;;;17.65;15.50;;;;;;;7.19;100.00;101604.03;10223222;28;20458;-76
2023/03/20 21:26:08;;;;;;;24.07;18.27;;;;;;;7.12;100.00;101606.22;10219960;28;20049;-80
2023/03/20 21:31:05;;;;;;;22.95;17.27;;;;;;;7.11;100.00;101610.03;10226772;28;20053;-79
2023/03/20 21:36:21;;;;;;;20.25;17.67;;;;;;;7.14;100.00;101609.47;10220617;28;20783;-79
2023/03/20 21:41:19;;;;;;;28.50;22.83;;;;;;;7.14;100.00;101606.75;10224182;28;20049;-81
2023/03/20 21:46:16;;;;;;;25.45;19.38;;;;;;;7.08;100.00;101607.88;10211421;28;20042;-77
2023/03/20 21:51:32;;;;;;;24.83;19.30;;;;;;;7.05;100.00;101606.47;10222310;28;20427;-80
2023/03/20 21:56:48;;;;;;;27.95;21.92;;;;;;;7.07;100.00;101608.94;10207100;28;20041;-80
2023/03/20 22:02:06;;;;;;;35.00;23.52;;;;;;;7.05;100.00;101605.69;10222674;28;20395;-80
2023/03/20 22:07:14;;;;;;;26.70;21.92;;;;;;;6.99;100.00;101606.78;10191999;28;20060;-79
2023/03/20 22:12:31;;;;;;;28.85;22.63;;;;;;;7.01;100.00;101604.56;10217472;28;20052;-79
2023/03/20 22:17:49;;;;;;;28.38;21.45;;;;;;;6.95;100.00;101601.06;10221800;28;20041;-75
2023/03/20 22:23:06;;;;;;;27.67;21.85;;;;;;;6.94;100.00;101602.97;10212198;28;20064;-77
2023/03/20 22:28:23;;;;;;;22.67;18.90;;;;;;;6.80;100.00;101603.75;10216009;28;20450;-74
2023/03/20 22:33:40;;;;;;;20.48;15.98;;;;;;;6.79;100.00;101602.94;10230278;28;20411;-75
2023/03/20 22:38:56;;;;;;;21.25;16.13;;;;;;;6.78;100.00;101598.63;10217068;28;20057;-75
2023/03/20 22:44:13;;;;;;;22.92;18.42;;;;;;;6.89;100.00;101597.53;10225941;28;20041;-75
2023/03/20 22:49:29;;;;;;;20.90;17.58;;;;;;;6.84;100.00;101594.78;10220788;28;20060;-74